Time;durP1;ratioP1;P1;durP2;ratioP2;P2;SDS_P1;SDS_P2;PMS_P1;PMS_P2;Temp;Humidity;BMP_temperature;BMP_pressure;BME280_temperature;BME280_humidity;BME280_pressure;Samples;Min_cycle;Max_cycle;Signal;HPM_P1;HPM_P2
2022/07/10 00:02:21;;;;;;;4.50;0.75;;;;;;;;;;10235656;28;20084;-67
2022/07/10 00:07:17;;;;;;;3.92;0.75;;;;;;;;;;10235805;28;20071;-67
2022/07/10 00:12:14;;;;;;;9.45;1.05;;;;;;;;;;10237868;28;20129;-67
2022/07/10 00:17:10;;;;;;;7.57;1.48;;;;;;;;;;10246879;28;20079;-66
2022/07/10 00:22:06;;;;;;;5.15;1.02;;;;;;;;;;10239642;28;20075;-68
2022/07/10 00:27:03;;;;;;;7.10;0.85;;;;;;;;;;10252161;28;20065;-67
2022/07/10 00:32:01;;;;;;;5.97;1.00;;;;;;;;;;10250194;28;20125;-67
2022/07/10 00:36:57;;;;;;;4.95;0.80;;;;;;;;;;10247916;28;20650;-66
2022/07/10 00:41:53;;;;;;;5.70;0.82;;;;;;;;;;10233705;28;20049;-65
2022/07/10 00:46:50;;;;;;;12.80;2.17;;;;;;;;;;10222927;28;20395;-65
2022/07/10 00:51:46;;;;;;;4.15;0.90;;;;;;;;;;10233970;28;20107;-65
2022/07/10 00:56:42;;;;;;;7.22;0.85;;;;;;;;;;10233776;28;20107;-64
2022/07/10 01:01:38;;;;;;;6.07;1.05;;;;;;;;;;10242464;28;20144;-66
2022/07/10 01:06:35;;;;;;;6.57;1.05;;;;;;;;;;10232421;28;20114;-66
2022/07/10 01:11:33;;;;;;;9.45;1.67;;;;;;;;;;10229231;28;20082;-66
2022/07/10 01:16:29;;;;;;;7.68;0.88;;;;;;;;;;10227230;28;20160;-64
2022/07/10 01:21:30;;;;;;;8.38;1.05;;;;;;;;;;10220661;28;20052;-64
2022/07/10 01:26:27;;;;;;;5.43;1.10;;;;;;;;;;10232818;28;21566;-67
2022/07/10 01:31:27;;;;;;;5.75;1.15;;;;;;;;;;10238595;28;20087;-64
2022/07/10 01:36:23;;;;;;;7.85;1.27;;;;;;;;;;10230829;28;20053;-64
2022/07/10 01:41:20;;;;;;;6.97;0.90;;;;;;;;;;10227236;28;20061;-65
2022/07/10 01:46:16;;;;;;;8.93;0.93;;;;;;;;;;10229133;28;20467;-64
2022/07/10 01:51:13;;;;;;;7.70;1.27;;;;;;;;;;10234730;28;20390;-67
2022/07/10 01:56:11;;;;;;;7.88;1.17;;;;;;;;;;10235411;28;20129;-64
2022/07/10 02:01:08;;;;;;;5.43;1.05;;;;;;;;;;10244747;28;20080;-66
2022/07/10 02:06:04;;;;;;;8.30;1.70;;;;;;;;;;10236053;28;20068;-64
2022/07/10 02:11:01;;;;;;;5.45;0.95;;;;;;;;;;10234805;28;20564;-67
2022/07/10 02:15:57;;;;;;;6.03;1.17;;;;;;;;;;10240481;28;20576;-66
2022/07/10 02:20:54;;;;;;;8.45;1.27;;;;;;;;;;10230843;28;20095;-66
2022/07/10 02:25:50;;;;;;;4.88;0.80;;;;;;;;;;10236833;28;20061;-66
2022/07/10 02:30:46;;;;;;;4.35;0.77;;;;;;;;;;10239834;28;20102;-66
2022/07/10 02:35:42;;;;;;;13.85;2.17;;;;;;;;;;10255334;28;20557;-65
2022/07/10 02:40:39;;;;;;;5.97;0.73;;;;;;;;;;10225959;28;20137;-64
2022/07/10 02:45:35;;;;;;;9.43;1.98;;;;;;;;;;10244650;28;20037;-64
2022/07/10 02:50:31;;;;;;;10.30;1.33;;;;;;;;;;10244646;28;20644;-66
2022/07/10 02:55:28;;;;;;;12.13;1.30;;;;;;;;;;10252070;28;20133;-65
2022/07/10 03:00:24;;;;;;;9.50;1.27;;;;;;;;;;10247350;28;20072;-64
2022/07/10 03:05:21;;;;;;;13.00;2.00;;;;;;;;;;10240365;28;20103;-66
2022/07/10 03:10:17;;;;;;;7.55;1.20;;;;;;;;;;10250155;28;20128;-65
2022/07/10 03:15:14;;;;;;;7.55;1.35;;;;;;;;;;10241600;28;20073;-65
2022/07/10 03:20:11;;;;;;;12.45;1.75;;;;;;;;;;10242590;28;20045;-65
2022/07/10 03:25:07;;;;;;;7.18;1.38;;;;;;;;;;10255110;28;20128;-64
2022/07/10 03:30:04;;;;;;;6.18;1.35;;;;;;;;;;10241849;28;20115;-65
2022/07/10 03:35:00;;;;;;;9.93;1.85;;;;;;;;;;10241228;28;20692;-64
2022/07/10 03:39:56;;;;;;;9.05;1.73;;;;;;;;;;10249380;28;20213;-64
2022/07/10 03:44:52;;;;;;;9.95;1.30;;;;;;;;;;10238643;28;20489;-64
2022/07/10 03:49:49;;;;;;;7.10;1.23;;;;;;;;;;10242196;28;20102;-64
2022/07/10 03:54:46;;;;;;;9.30;2.10;;;;;;;;;;10228743;28;20041;-64
2022/07/10 03:59:42;;;;;;;11.70;2.45;;;;;;;;;;10243401;28;20049;-64
2022/07/10 04:04:38;;;;;;;8.32;1.80;;;;;;;;;;10222778;28;20069;-65
2022/07/10 04:09:35;;;;;;;10.43;1.95;;;;;;;;;;10243045;28;20038;-64
2022/07/10 04:14:31;;;;;;;15.32;2.72;;;;;;;;;;10247708;28;20049;-64
2022/07/10 04:19:27;;;;;;;15.25;2.40;;;;;;;;;;10236270;28;20072;-65
2022/07/10 04:24:24;;;;;;;13.27;2.53;;;;;;;;;;10228853;28;20079;-65
2022/07/10 04:29:20;;;;;;;15.23;2.67;;;;;;;;;;10244744;28;20077;-65
2022/07/10 04:34:17;;;;;;;14.00;2.03;;;;;;;;;;10231611;28;20045;-64
2022/07/10 04:39:13;;;;;;;19.80;2.65;;;;;;;;;;10243770;28;20532;-64
2022/07/10 04:44:10;;;;;;;17.77;3.50;;;;;;;;;;10227264;28;20141;-65
2022/07/10 04:49:06;;;;;;;15.63;3.20;;;;;;;;;;10245046;28;20545;-64
2022/07/10 04:54:02;;;;;;;11.25;2.63;;;;;;;;;;10244949;28;20458;-64
2022/07/10 04:58:58;;;;;;;9.20;2.15;;;;;;;;;;10245342;28;20073;-65
2022/07/10 05:03:55;;;;;;;16.70;2.63;;;;;;;;;;10225822;28;20049;-65
2022/07/10 05:08:51;;;;;;;18.35;3.40;;;;;;;;;;10240488;28;20129;-66
2022/07/10 05:13:49;;;;;;;16.60;2.60;;;;;;;;;;10247865;28;20406;-65
2022/07/10 05:18:46;;;;;;;15.32;3.35;;;;;;;;;;10246325;28;20044;-66
2022/07/10 05:23:42;;;;;;;12.27;1.75;;;;;;;;;;10233194;28;20071;-65
2022/07/10 05:28:39;;;;;;;11.80;3.22;;;;;;;;;;10238903;28;20085;-65
2022/07/10 05:33:38;;;;;;;18.10;2.72;;;;;;;;;;10232115;28;20069;-65
2022/07/10 05:38:34;;;;;;;8.75;2.13;;;;;;;;;;10232442;28;20143;-65
2022/07/10 05:43:31;;;;;;;10.65;2.05;;;;;;;;;;10238074;28;20104;-64
2022/07/10 05:48:27;;;;;;;17.08;2.67;;;;;;;;;;10242058;28;20398;-64
2022/07/10 05:53:23;;;;;;;13.43;2.35;;;;;;;;;;10227139;28;20179;-64
2022/07/10 05:58:20;;;;;;;17.25;3.45;;;;;;;;;;10236885;28;20037;-64
2022/07/10 06:03:16;;;;;;;12.77;2.55;;;;;;;;;;10229274;28;20073;-64
2022/07/10 06:08:13;;;;;;;14.45;2.55;;;;;;;;;;10235062;28;20552;-65
2022/07/10 06:13:10;;;;;;;12.10;1.73;;;;;;;;;;10235015;28;20069;-65
2022/07/10 06:18:06;;;;;;;14.00;2.22;;;;;;;;;;10235874;28;20060;-65
2022/07/10 06:23:02;;;;;;;16.13;3.03;;;;;;;;;;10229158;28;20049;-65
2022/07/10 06:27:59;;;;;;;11.23;1.88;;;;;;;;;;10235112;28;21649;-65
2022/07/10 06:32:55;;;;;;;16.15;2.70;;;;;;;;;;10243793;28;20136;-64
2022/07/10 06:37:51;;;;;;;10.02;1.95;;;;;;;;;;10222453;28;20104;-66
2022/07/10 06:42:48;;;;;;;14.05;2.25;;;;;;;;;;10222073;28;20083;-65
2022/07/10 06:47:57;;;;;;;13.98;2.15;;;;;;;;;;10211339;28;20100;-65
2022/07/10 06:52:54;;;;;;;11.27;1.85;;;;;;;;;;10208474;28;20100;-65
2022/07/10 06:57:50;;;;;;;10.05;2.30;;;;;;;;;;10211572;28;20053;-65
2022/07/10 07:02:47;;;;;;;9.88;2.05;;;;;;;;;;10217483;28;20050;-65
2022/07/10 07:07:43;;;;;;;11.15;1.83;;;;;;;;;;10229766;28;20586;-65
2022/07/10 07:12:39;;;;;;;15.32;2.08;;;;;;;;;;10209578;28;20068;-65
2022/07/10 07:17:56;;;;;;;12.77;2.35;;;;;;;;;;10198981;28;20133;-65
2022/07/10 07:23:11;;;;;;;12.73;2.33;;;;;;;;;;10197082;28;20864;-65
2022/07/10 07:28:10;;;;;;;7.75;1.80;;;;;;;;;;10197016;28;20096;-65
2022/07/10 07:33:07;;;;;;;13.68;2.05;;;;;;;;;;10192013;28;20145;-65
2022/07/10 07:38:05;;;;;;;10.25;2.20;;;;;;;;;;10197325;28;20176;-65
2022/07/10 07:43:02;;;;;;;13.55;2.00;;;;;;;;;;10202774;28;20569;-64
2022/07/10 07:47:59;;;;;;;9.77;1.70;;;;;;;;;;10199887;28;20749;-64
2022/07/10 07:52:55;;;;;;;10.45;1.80;;;;;;;;;;10228566;28;20124;-65
2022/07/10 07:57:53;;;;;;;9.77;1.75;;;;;;;;;;10205166;28;20168;-65
2022/07/10 08:02:50;;;;;;;10.95;1.52;;;;;;;;;;10219587;28;21082;-65
2022/07/10 08:07:52;;;;;;;11.63;1.35;;;;;;;;;;10204272;28;20049;-65
2022/07/10 08:12:49;;;;;;;11.80;2.10;;;;;;;;;;10203281;28;20133;-65
2022/07/10 08:17:49;;;;;;;7.93;1.38;;;;;;;;;;10202943;28;20052;-65
2022/07/10 08:22:46;;;;;;;10.18;1.80;;;;;;;;;;10204283;28;20046;-65
2022/07/10 08:27:42;;;;;;;9.98;1.42;;;;;;;;;;10197478;28;20077;-66
2022/07/10 08:32:39;;;;;;;12.88;2.20;;;;;;;;;;10205029;28;20517;-65
2022/07/10 08:37:39;;;;;;;9.70;1.60;;;;;;;;;;10214956;28;20506;-65
2022/07/10 08:42:36;;;;;;;9.05;1.30;;;;;;;;;;10229590;28;20633;-65
2022/07/10 08:47:35;;;;;;;8.50;2.05;;;;;;;;;;10227370;28;20585;-65
2022/07/10 08:52:44;;;;;;;13.55;2.30;;;;;;;;;;10224193;28;20041;-65
2022/07/10 08:57:42;;;;;;;9.27;1.75;;;;;;;;;;10211049;28;20095;-65
2022/07/10 09:02:38;;;;;;;12.40;1.73;;;;;;;;;;10209934;28;20737;-67
2022/07/10 09:07:36;;;;;;;9.77;1.83;;;;;;;;;;10216377;28;20088;-66
2022/07/10 09:12:49;;;;;;;9.13;1.35;;;;;;;;;;10207117;28;20132;-65
2022/07/10 09:18:07;;;;;;;8.10;1.42;;;;;;;;;;10219493;28;20628;-64
2022/07/10 09:23:10;;;;;;;5.13;1.10;;;;;;;;;;10210372;28;20673;-66
2022/07/10 09:28:06;;;;;;;6.85;1.40;;;;;;;;;;10213187;28;20045;-64
2022/07/10 09:33:25;;;;;;;11.93;1.67;;;;;;;;;;10208224;28;20041;-66
2022/07/10 09:38:22;;;;;;;10.43;1.70;;;;;;;;;;10224769;28;20119;-67
2022/07/10 09:43:19;;;;;;;8.48;1.58;;;;;;;;;;10245451;28;20056;-65
2022/07/10 09:48:23;;;;;;;7.38;1.42;;;;;;;;;;10264373;28;20553;-65
2022/07/10 09:53:19;;;;;;;10.35;1.50;;;;;;;;;;10255169;28;20041;-66
2022/07/10 09:58:16;;;;;;;11.05;1.38;;;;;;;;;;10250152;28;20672;-66
2022/07/10 10:03:14;;;;;;;9.88;1.30;;;;;;;;;;10253180;28;20079;-66
2022/07/10 10:08:24;;;;;;;7.80;1.75;;;;;;;;;;10255200;28;20110;-67
2022/07/10 10:13:22;;;;;;;7.60;1.50;;;;;;;;;;10257476;28;20136;-66
2022/07/10 10:18:19;;;;;;;7.00;1.98;;;;;;;;;;10244749;28;20495;-67
2022/07/10 10:23:17;;;;;;;10.10;1.52;;;;;;;;;;10257296;28;20061;-66
2022/07/10 10:28:15;;;;;;;10.25;1.48;;;;;;;;;;10241224;28;20057;-67
2022/07/10 10:33:30;;;;;;;6.10;1.33;;;;;;;;;;10242720;28;20084;-67
2022/07/10 10:38:45;;;;;;;5.20;0.90;;;;;;;;;;10259647;28;20734;-67
2022/07/10 10:43:41;;;;;;;6.88;1.25;;;;;;;;;;10242377;28;20053;-67
2022/07/10 10:48:58;;;;;;;8.65;1.30;;;;;;;;;;10254662;28;20744;-67
2022/07/10 10:54:06;;;;;;;6.80;1.40;;;;;;;;;;10260984;28;20084;-65
2022/07/10 10:59:03;;;;;;;5.95;1.05;;;;;;;;;;10256906;28;20223;-67
2022/07/10 11:04:08;;;;;;;10.60;1.35;;;;;;;;;;10271407;28;20082;-66
2022/07/10 11:09:21;;;;;;;8.52;1.65;;;;;;;;;;10256755;28;20053;-66
2022/07/10 11:14:18;;;;;;;7.35;1.42;;;;;;;;;;10264692;28;20079;-66
2022/07/10 11:19:19;;;;;;;7.85;1.33;;;;;;;;;;10264234;28;20464;-67
2022/07/10 11:24:18;;;;;;;8.07;1.00;;;;;;;;;;10270873;28;20049;-66
2022/07/10 11:29:17;;;;;;;6.25;1.10;;;;;;;;;;10271951;28;20127;-66
2022/07/10 11:34:14;;;;;;;10.65;1.25;;;;;;;;;;10268570;28;20798;-67
2022/07/10 11:39:12;;;;;;;7.60;1.50;;;;;;;;;;10268279;28;20139;-67
2022/07/10 11:44:12;;;;;;;7.40;2.20;;;;;;;;;;10258280;28;20045;-67
2022/07/10 11:49:10;;;;;;;7.35;1.40;;;;;;;;;;10269686;28;20056;-66
2022/07/10 11:54:06;;;;;;;6.60;1.13;;;;;;;;;;10266938;28;20451;-66
2022/07/10 11:59:04;;;;;;;5.35;1.20;;;;;;;;;;10263035;28;20041;-66
2022/07/10 12:04:02;;;;;;;6.78;1.63;;;;;;;;;;10258303;28;20135;-67
2022/07/10 12:09:06;;;;;;;9.52;1.60;;;;;;;;;;10255685;28;20036;-66
2022/07/10 12:14:14;;;;;;;8.43;1.45;;;;;;;;;;10254063;28;20099;-67
2022/07/10 12:19:12;;;;;;;6.60;1.73;;;;;;;;;;10232977;28;20056;-67
2022/07/10 12:24:09;;;;;;;9.30;1.42;;;;;;;;;;10230899;28;20057;-67
2022/07/10 12:29:05;;;;;;;6.32;1.85;;;;;;;;;;10211373;28;20107;-66
2022/07/10 12:34:03;;;;;;;9.93;1.83;;;;;;;;;;10252092;28;20812;-66
2022/07/10 12:39:00;;;;;;;6.70;1.92;;;;;;;;;;10220389;28;20403;-66
2022/07/10 12:43:56;;;;;;;9.27;1.60;;;;;;;;;;10242051;28;20083;-67
2022/07/10 12:49:08;;;;;;;7.35;1.17;;;;;;;;;;10246480;28;20740;-67
2022/07/10 12:54:05;;;;;;;7.78;1.52;;;;;;;;;;10221881;28;20046;-66
2022/07/10 12:59:14;;;;;;;7.80;1.08;;;;;;;;;;10211768;28;20387;-66
2022/07/10 13:04:10;;;;;;;8.55;1.75;;;;;;;;;;10241777;28;20731;-68
2022/07/10 13:09:23;;;;;;;8.90;1.35;;;;;;;;;;10241916;28;20596;-66
2022/07/10 13:14:20;;;;;;;5.22;1.15;;;;;;;;;;10234825;28;20155;-66
2022/07/10 13:19:17;;;;;;;6.80;1.23;;;;;;;;;;10238632;28;20081;-67
2022/07/10 13:24:13;;;;;;;8.68;1.08;;;;;;;;;;10238302;28;20134;-66
2022/07/10 13:29:09;;;;;;;6.72;1.00;;;;;;;;;;10247042;28;20688;-67
2022/07/10 13:34:06;;;;;;;8.70;1.45;;;;;;;;;;10250309;28;20486;-66
2022/07/10 13:39:02;;;;;;;7.28;1.30;;;;;;;;;;10246971;28;20539;-66
2022/07/10 13:43:58;;;;;;;11.90;2.10;;;;;;;;;;10245528;28;20563;-66
2022/07/10 13:48:55;;;;;;;9.15;2.08;;;;;;;;;;10252315;28;20076;-66
2022/07/10 13:53:51;;;;;;;8.38;1.92;;;;;;;;;;10254654;28;20137;-66
2022/07/10 13:58:48;;;;;;;7.28;2.00;;;;;;;;;;10258599;28;20658;-66
2022/07/10 14:03:45;;;;;;;7.32;1.85;;;;;;;;;;10237397;28;20073;-66
2022/07/10 14:08:41;;;;;;;9.52;2.00;;;;;;;;;;10283093;28;20441;-66
2022/07/10 14:13:38;;;;;;;7.47;1.52;;;;;;;;;;10287654;28;20056;-66
2022/07/10 14:18:37;;;;;;;6.43;1.52;;;;;;;;;;10264353;28;20114;-66
2022/07/10 14:23:34;;;;;;;8.32;1.73;;;;;;;;;;10274587;28;20052;-66
2022/07/10 14:28:31;;;;;;;6.95;1.40;;;;;;;;;;10266031;28;20049;-66
2022/07/10 14:33:27;;;;;;;8.30;1.83;;;;;;;;;;10279268;28;20144;-66
2022/07/10 14:38:24;;;;;;;6.13;1.02;;;;;;;;;;10282270;28;20106;-66
2022/07/10 14:43:20;;;;;;;11.20;2.00;;;;;;;;;;10272247;28;20685;-66
2022/07/10 14:48:16;;;;;;;6.97;1.42;;;;;;;;;;10263696;28;20460;-65
2022/07/10 14:53:13;;;;;;;8.90;1.88;;;;;;;;;;10269444;28;20474;-65
2022/07/10 14:58:10;;;;;;;9.70;1.38;;;;;;;;;;10258759;28;20420;-66
2022/07/10 15:03:07;;;;;;;4.78;0.90;;;;;;;;;;10273712;28;20505;-66
2022/07/10 15:08:03;;;;;;;5.75;1.40;;;;;;;;;;10258715;28;20107;-66
2022/07/10 15:13:04;;;;;;;10.15;1.85;;;;;;;;;;10216235;28;20068;-66
2022/07/10 15:18:00;;;;;;;9.23;1.48;;;;;;;;;;10245881;28;20053;-66
2022/07/10 15:22:57;;;;;;;7.78;1.25;;;;;;;;;;10288879;28;20040;-66
2022/07/10 15:27:54;;;;;;;10.95;1.98;;;;;;;;;;10254268;28;20744;-66
2022/07/10 15:32:53;;;;;;;11.68;1.10;;;;;;;;;;10255693;28;20055;-67
2022/07/10 15:37:49;;;;;;;8.35;1.50;;;;;;;;;;10263965;28;20080;-66
2022/07/10 15:42:56;;;;;;;9.90;2.03;;;;;;;;;;10274602;28;20044;-66
2022/07/10 15:47:53;;;;;;;7.47;1.83;;;;;;;;;;10262712;28;20118;-67
2022/07/10 15:52:49;;;;;;;7.10;1.38;;;;;;;;;;10259714;28;20071;-66
2022/07/10 15:57:45;;;;;;;8.60;1.30;;;;;;;;;;10257502;28;20045;-66
2022/07/10 16:02:42;;;;;;;9.35;1.38;;;;;;;;;;10255502;28;20048;-66
2022/07/10 16:07:38;;;;;;;7.05;1.65;;;;;;;;;;10259923;28;20055;-66
2022/07/10 16:12:35;;;;;;;7.18;2.03;;;;;;;;;;10256254;28;21592;-66
2022/07/10 16:17:31;;;;;;;10.23;1.80;;;;;;;;;;10260069;28;20099;-66
2022/07/10 16:22:27;;;;;;;9.15;1.67;;;;;;;;;;10270806;28;20164;-66
2022/07/10 16:27:24;;;;;;;5.68;1.10;;;;;;;;;;10278215;28;20048;-66
2022/07/10 16:32:20;;;;;;;10.07;1.80;;;;;;;;;;10251039;28;20510;-66
2022/07/10 16:37:17;;;;;;;8.00;1.40;;;;;;;;;;10261124;28;20544;-66
2022/07/10 16:42:13;;;;;;;12.93;3.58;;;;;;;;;;10276452;28;20483;-67
2022/07/10 16:47:10;;;;;;;5.95;1.63;;;;;;;;;;10258174;28;20068;-66
2022/07/10 16:52:06;;;;;;;6.50;1.00;;;;;;;;;;10267300;28;20620;-66
2022/07/10 16:57:06;;;;;;;7.00;1.25;;;;;;;;;;10270326;28;20040;-67
2022/07/10 17:02:07;;;;;;;9.60;2.05;;;;;;;;;;10255096;28;20132;-67
2022/07/10 17:07:05;;;;;;;11.63;1.25;;;;;;;;;;10246854;28;20057;-67
2022/07/10 17:12:02;;;;;;;6.68;1.30;;;;;;;;;;10243953;28;20053;-66
2022/07/10 17:16:59;;;;;;;9.07;1.27;;;;;;;;;;10237334;28;20537;-66
2022/07/10 17:21:56;;;;;;;7.35;1.20;;;;;;;;;;10248336;28;20099;-66
2022/07/10 17:26:54;;;;;;;10.45;1.58;;;;;;;;;;10244933;28;20045;-66
2022/07/10 17:31:51;;;;;;;7.20;1.50;;;;;;;;;;10228978;28;20073;-66
2022/07/10 17:36:47;;;;;;;6.15;2.20;;;;;;;;;;10228906;28;20083;-66
2022/07/10 17:41:44;;;;;;;9.52;1.40;;;;;;;;;;10233910;28;20429;-66
2022/07/10 17:46:40;;;;;;;4.55;1.13;;;;;;;;;;10232621;28;20766;-66
2022/07/10 17:51:37;;;;;;;7.93;1.23;;;;;;;;;;10227769;28;20040;-66
2022/07/10 17:56:33;;;;;;;8.50;1.52;;;;;;;;;;10227053;28;20133;-66
2022/07/10 18:01:30;;;;;;;6.93;1.77;;;;;;;;;;10241667;28;20103;-66
2022/07/10 18:06:26;;;;;;;8.23;2.17;;;;;;;;;;10243087;28;20088;-66
2022/07/10 18:11:23;;;;;;;30.48;20.27;;;;;;;;;;10244438;28;20170;-66
2022/07/10 18:16:20;;;;;;;58.47;49.78;;;;;;;;;;10236776;28;20033;-66
2022/07/10 18:21:17;;;;;;;8.02;2.22;;;;;;;;;;10247324;28;20051;-66
2022/07/10 18:26:13;;;;;;;5.75;1.30;;;;;;;;;;10241779;28;20477;-66
2022/07/10 18:31:10;;;;;;;6.07;0.90;;;;;;;;;;10229220;28;20797;-65
2022/07/10 18:36:06;;;;;;;5.65;1.20;;;;;;;;;;10239434;28;20896;-66
2022/07/10 18:41:04;;;;;;;6.57;1.00;;;;;;;;;;10243188;28;20132;-66
2022/07/10 18:46:00;;;;;;;6.97;1.23;;;;;;;;;;10243217;28;20041;-66
2022/07/10 18:50:57;;;;;;;4.85;0.80;;;;;;;;;;10238809;28;20505;-66
2022/07/10 18:55:54;;;;;;;6.22;1.20;;;;;;;;;;10237162;28;20044;-66
2022/07/10 19:00:50;;;;;;;4.72;1.10;;;;;;;;;;10245821;28;20044;-66
2022/07/10 19:05:47;;;;;;;8.38;0.90;;;;;;;;;;10251116;28;20037;-66
2022/07/10 19:10:43;;;;;;;4.45;1.30;;;;;;;;;;10257509;28;20095;-66
2022/07/10 19:15:39;;;;;;;6.85;1.17;;;;;;;;;;10256726;28;20415;-66
2022/07/10 19:20:36;;;;;;;6.57;1.40;;;;;;;;;;10263745;28;20056;-66
2022/07/10 19:25:34;;;;;;;12.55;2.38;;;;;;;;;;10258339;28;20044;-66
2022/07/10 19:30:32;;;;;;;6.18;1.10;;;;;;;;;;10299940;28;20120;-66
2022/07/10 19:35:28;;;;;;;4.57;0.98;;;;;;;;;;10254685;28;20448;-66
2022/07/10 19:40:24;;;;;;;4.55;0.88;;;;;;;;;;10242778;28;20056;-66
2022/07/10 19:45:22;;;;;;;7.43;0.93;;;;;;;;;;10241610;28;20053;-66
2022/07/10 19:50:19;;;;;;;5.15;1.40;;;;;;;;;;10242582;28;20144;-66
2022/07/10 19:55:16;;;;;;;7.63;1.63;;;;;;;;;;10265078;28;20114;-66
2022/07/10 20:00:12;;;;;;;7.18;1.80;;;;;;;;;;10272724;28;20132;-66
2022/07/10 20:05:09;;;;;;;8.30;1.92;;;;;;;;;;10261528;28;20057;-66
2022/07/10 20:10:06;;;;;;;7.53;2.03;;;;;;;;;;10261097;28;20147;-66
2022/07/10 20:15:03;;;;;;;5.63;1.50;;;;;;;;;;10261355;28;20045;-66
2022/07/10 20:19:59;;;;;;;6.13;1.70;;;;;;;;;;10266049;28;20547;-65
2022/07/10 20:24:56;;;;;;;8.65;1.42;;;;;;;;;;10253095;28;20052;-65
2022/07/10 20:29:52;;;;;;;3.92;0.77;;;;;;;;;;10249613;28;20118;-66
2022/07/10 20:34:48;;;;;;;8.40;1.13;;;;;;;;;;10183309;28;20124;-67
2022/07/10 20:39:45;;;;;;;7.18;1.40;;;;;;;;;;10187555;28;20687;-67
2022/07/10 20:44:42;;;;;;;9.80;1.38;;;;;;;;;;10184541;28;20045;-66
2022/07/10 20:49:38;;;;;;;8.95;1.67;;;;;;;;;;10187685;28;20076;-66
2022/07/10 20:54:34;;;;;;;7.18;1.48;;;;;;;;;;10190895;28;20123;-66
2022/07/10 20:59:31;;;;;;;8.23;1.08;;;;;;;;;;10200906;28;20129;-65
2022/07/10 21:04:30;;;;;;;9.25;1.40;;;;;;;;;;10200464;28;20073;-66
2022/07/10 21:09:26;;;;;;;12.25;3.47;;;;;;;;;;10204964;28;20559;-66
2022/07/10 21:14:22;;;;;;;11.63;3.05;;;;;;;;;;10214515;28;20141;-66
2022/07/10 21:19:18;;;;;;;11.75;2.33;;;;;;;;;;10213897;28;20458;-66
2022/07/10 21:24:15;;;;;;;10.05;2.00;;;;;;;;;;10219566;28;20136;-66
2022/07/10 21:29:11;;;;;;;7.63;2.60;;;;;;;;;;10218481;28;20042;-66
2022/07/10 21:34:08;;;;;;;8.55;2.70;;;;;;;;;;10211314;28;20050;-66
2022/07/10 21:39:04;;;;;;;9.60;2.40;;;;;;;;;;10224296;28;20076;-66
2022/07/10 21:44:00;;;;;;;11.98;3.55;;;;;;;;;;10220728;28;20068;-66
2022/07/10 21:48:56;;;;;;;12.23;3.00;;;;;;;;;;10227606;28;20140;-66
2022/07/10 21:53:56;;;;;;;4.75;2.00;;;;;;;;;;10217695;28;20045;-66
2022/07/10 21:58:53;;;;;;;10.85;2.45;;;;;;;;;;10219277;28;20069;-66
2022/07/10 22:03:49;;;;;;;5.85;1.73;;;;;;;;;;10212089;28;20540;-66
2022/07/10 22:08:45;;;;;;;9.48;2.78;;;;;;;;;;10216608;28;20881;-66
2022/07/10 22:13:42;;;;;;;7.88;2.08;;;;;;;;;;10221731;28;20096;-67
2022/07/10 22:18:39;;;;;;;7.68;1.10;;;;;;;;;;10223956;28;20041;-66
2022/07/10 22:23:35;;;;;;;6.32;1.40;;;;;;;;;;10220021;28;20046;-67
2022/07/10 22:28:32;;;;;;;6.03;1.20;;;;;;;;;;10220435;28;20099;-67
2022/07/10 22:33:28;;;;;;;5.88;1.10;;;;;;;;;;10213502;28;20046;-66
2022/07/10 22:38:24;;;;;;;9.93;1.83;;;;;;;;;;10225988;28;20715;-66
2022/07/10 22:43:21;;;;;;;6.80;0.90;;;;;;;;;;10217548;28;20080;-67
2022/07/10 22:48:17;;;;;;;6.97;1.23;;;;;;;;;;10224508;28;20132;-67
2022/07/10 22:53:13;;;;;;;9.27;1.67;;;;;;;;;;10220730;28;20072;-67
2022/07/10 22:58:10;;;;;;;9.45;2.10;;;;;;;;;;10223481;28;20568;-67
2022/07/10 23:03:07;;;;;;;6.18;1.45;;;;;;;;;;10228169;28;20148;-66
2022/07/10 23:08:04;;;;;;;8.63;1.42;;;;;;;;;;10223980;28;20140;-66
2022/07/10 23:13:01;;;;;;;7.35;1.52;;;;;;;;;;10226264;28;20087;-66
2022/07/10 23:17:59;;;;;;;5.13;0.80;;;;;;;;;;10225472;28;20041;-66
2022/07/10 23:22:55;;;;;;;11.27;1.77;;;;;;;;;;10222893;28;20099;-66
2022/07/10 23:27:51;;;;;;;5.30;1.02;;;;;;;;;;10230481;28;20045;-66
2022/07/10 23:32:48;;;;;;;3.88;1.08;;;;;;;;;;10223735;28;20119;-66
2022/07/10 23:37:44;;;;;;;8.25;1.67;;;;;;;;;;10225997;28;20497;-66
2022/07/10 23:42:40;;;;;;;4.45;1.00;;;;;;;;;;10225071;28;20064;-66
2022/07/10 23:47:37;;;;;;;6.28;1.00;;;;;;;;;;10218973;28;20065;-67
2022/07/10 23:52:34;;;;;;;3.78;0.80;;;;;;;;;;10224574;28;20580;-66
2022/07/10 23:57:30;;;;;;;5.75;1.02;;;;;;;;;;10223521;28;20061;-66
